Time;durP1;ratioP1;P1;durP2;ratioP2;P2;SDS_P1;SDS_P2;PMS_P1;PMS_P2;Temp;Humidity;BMP_temperature;BMP_pressure;BME280_temperature;BME280_humidity;BME280_pressure;Samples;Min_cycle;Max_cycle;Signal;HPM_P1;HPM_P2
2023/10/10 00:00:54;;;;;;;2.80;1.80;;;15.60;99.90;;;;;;5104837;28;20481;-75
2023/10/10 00:03:23;;;;;;;1.88;1.10;;;15.60;99.90;;;;;;5104712;28;20117;-76
2023/10/10 00:05:52;;;;;;;2.22;1.27;;;15.50;99.90;;;;;;5105140;28;20130;-76
2023/10/10 00:08:20;;;;;;;2.38;1.65;;;15.50;99.90;;;;;;5106913;28;20040;-75
2023/10/10 00:10:50;;;;;;;1.60;1.15;;;15.50;99.90;;;;;;5105262;28;20055;-75
2023/10/10 00:13:19;;;;;;;2.08;1.30;;;15.40;99.90;;;;;;5104259;28;20047;-75
2023/10/10 00:15:50;;;;;;;1.80;1.55;;;15.40;99.90;;;;;;5104374;28;20074;-75
2023/10/10 00:18:18;;;;;;;2.00;1.38;;;15.40;99.90;;;;;;5089766;28;20051;-75
2023/10/10 00:21:07;;;;;;;2.40;1.38;;;15.40;99.90;;;;;;5090921;28;20131;-75
2023/10/10 00:23:47;;;;;;;2.10;1.50;;;15.30;99.90;;;;;;5092607;28;20104;-75
2023/10/10 00:26:14;;;;;;;2.10;1.58;;;15.30;99.90;;;;;;5105699;28;20463;-75
2023/10/10 00:28:45;;;;;;;1.45;1.13;;;15.30;99.90;;;;;;5107243;28;20361;-75
2023/10/10 00:31:17;;;;;;;1.90;1.40;;;15.30;99.90;;;;;;5108706;28;20067;-75
2023/10/10 00:33:46;;;;;;;2.28;1.67;;;15.30;99.90;;;;;;5103539;28;20066;-75
2023/10/10 00:36:14;;;;;;;2.90;1.60;;;15.20;99.90;;;;;;5107871;27;20047;-75
2023/10/10 00:38:42;;;;;;;2.47;1.30;;;15.10;46.40;;;;;;5106821;28;20101;-75
2023/10/10 00:41:11;;;;;;;2.00;1.70;;;15.10;99.90;;;;;;5106550;28;20066;-75
2023/10/10 00:43:38;;;;;;;2.03;1.50;;;15.10;99.90;;;;;;5106490;28;20055;-75
2023/10/10 00:46:04;;;;;;;1.98;1.33;;;15.10;99.90;;;;;;5105230;28;20066;-75
2023/10/10 00:48:32;;;;;;;2.08;1.45;;;15.10;99.90;;;;;;5104663;27;20059;-75
2023/10/10 00:51:11;;;;;;;2.20;1.40;;;15.00;99.90;;;;;;5086730;28;20312;-75
2023/10/10 00:53:45;;;;;;;2.17;1.30;;;15.00;99.90;;;;;;5087787;28;20452;-75
2023/10/10 00:56:13;;;;;;;2.30;1.30;;;15.00;99.90;;;;;;5102481;28;20401;-75
2023/10/10 00:58:42;;;;;;;2.00;1.23;;;15.00;99.90;;;;;;5105795;28;20044;-75
2023/10/10 01:01:14;;;;;;;2.95;1.20;;;15.00;99.90;;;;;;5107114;28;20415;-75
2023/10/10 01:03:45;;;;;;;1.42;1.13;;;15.00;99.90;;;;;;5087369;28;20096;-75
2023/10/10 01:06:29;;;;;;;1.95;1.40;;;14.90;99.90;;;;;;5101551;28;20040;-75
2023/10/10 01:09:15;;;;;;;2.15;1.52;;;14.90;99.90;;;;;;5102456;28;20043;-75
2023/10/10 01:11:43;;;;;;;1.67;1.17;;;14.90;99.90;;;;;;5105756;28;20047;-76
2023/10/10 01:14:16;;;;;;;2.20;1.50;;;14.90;1.00;;;;;;5104834;28;20116;-75
2023/10/10 01:16:47;;;;;;;2.00;1.27;;;14.90;1.00;;;;;;5106042;28;20051;-75
2023/10/10 01:19:17;;;;;;;2.72;1.48;;;14.90;1.00;;;;;;5087473;28;20158;-75
2023/10/10 01:21:50;;;;;;;2.25;1.60;;;14.80;1.00;;;;;;5102361;28;20332;-75
2023/10/10 01:24:21;;;;;;;2.42;1.63;;;14.80;1.00;;;;;;5105432;28;20462;-75
2023/10/10 01:26:51;;;;;;;1.90;1.23;;;14.70;1.00;;;;;;5106774;28;20297;-75
2023/10/10 01:31:48;;;;;;;2.03;1.27;;;14.70;99.90;;;;;;5104243;28;20047;-75
2023/10/10 01:34:30;;;;;;;1.70;1.10;;;14.70;99.90;;;;;;5104595;28;20046;-75
2023/10/10 01:37:27;;;;;;;2.20;1.23;;;14.60;99.90;;;;;;5103761;28;20051;-75
2023/10/10 01:40:17;;;;;;;1.45;1.05;;;14.60;99.90;;;;;;5092988;28;20239;-76
2023/10/10 01:43:07;;;;;;;1.73;1.23;;;14.60;1.00;;;;;;5076061;28;20090;-75
2023/10/10 01:45:37;;;;;;;1.92;1.38;;;14.60;1.00;;;;;;5103279;28;20051;-75
2023/10/10 01:48:08;;;;;;;1.67;1.33;;;14.50;1.00;;;;;;5105397;28;20320;-75
2023/10/10 01:50:35;;;;;;;1.85;1.40;;;14.50;1.00;;;;;;5106665;28;20044;-75
2023/10/10 01:53:11;;;;;;;1.55;1.10;;;14.50;1.00;;;;;;5105719;28;20047;-75
2023/10/10 01:55:38;;;;;;;2.00;1.42;;;14.50;99.90;;;;;;5074658;28;20055;-75
2023/10/10 01:58:12;;;;;;;1.95;1.20;;;14.50;99.90;;;;;;5088739;28;20103;-75
2023/10/10 02:00:43;;;;;;;2.20;1.40;;;14.40;99.90;;;;;;5106099;28;20087;-75
2023/10/10 02:03:10;;;;;;;1.48;1.10;;;14.40;1.00;;;;;;5105106;28;20089;-76
2023/10/10 02:08:09;;;;;;;2.17;1.45;;;14.30;1.00;;;;;;5088834;28;20055;-75
2023/10/10 02:10:36;;;;;;;1.90;1.17;;;14.30;2.50;;;;;;5105489;28;20050;-75
2023/10/10 02:13:07;;;;;;;1.70;1.35;;;14.30;24.90;;;;;;5088274;28;20047;-75
2023/10/10 02:15:36;;;;;;;1.30;1.10;;;14.30;30.50;;;;;;5073334;28;20039;-75
2023/10/10 02:18:12;;;;;;;1.73;1.27;;;14.30;3.50;;;;;;5087909;28;20048;-75
2023/10/10 02:23:24;;;;;;;1.48;1.20;;;14.30;78.80;;;;;;5104573;28;20039;-75
2023/10/10 02:25:53;;;;;;;1.60;1.38;;;14.30;99.90;;;;;;5104850;28;20142;-75
2023/10/10 02:28:20;;;;;;;1.48;1.13;;;14.20;99.90;;;;;;5088787;28;20039;-75
2023/10/10 02:30:52;;;;;;;1.45;0.93;;;14.20;97.90;;;;;;5106948;28;20112;-75
2023/10/10 02:35:56;;;;;;;1.63;1.10;;;14.20;99.90;;;;;;5106778;28;20192;-75
2023/10/10 02:38:34;;;;;;;2.10;1.60;;;14.20;99.90;;;;;;5071935;28;20048;-75
2023/10/10 02:44:46;;;;;;;1.95;1.17;;;14.10;98.60;;;;;;5103859;28;20044;-75
2023/10/10 02:46:47;;;;;;;1.73;1.25;;;14.10;99.90;;;;;;5098473;28;20136;-75
2023/10/10 02:49:29;;;;;;;1.77;1.08;;;14.00;87.10;;;;;;5089144;28;20055;-75
2023/10/10 02:51:58;;;;;;;2.13;1.30;;;14.00;63.80;;;;;;5090401;28;20047;-75
2023/10/10 02:56:57;;;;;;;1.88;1.27;;;13.90;99.90;;;;;;5101987;28;20146;-75
2023/10/10 02:59:38;;;;;;;1.60;1.17;;;13.90;99.90;;;;;;5088165;28;20043;-75
2023/10/10 03:02:22;;;;;;;1.58;1.10;;;13.90;93.70;;;;;;5089664;28;20051;-75
2023/10/10 03:05:06;;;;;;;1.50;1.10;;;13.90;1.00;;;;;;5103343;28;20054;-76
2023/10/10 03:07:33;;;;;;;1.60;1.30;;;13.80;99.90;;;;;;5104676;28;20100;-75
2023/10/10 03:12:42;;;;;;;1.85;1.15;;;13.80;99.90;;;;;;5103820;28;20055;-75
2023/10/10 03:15:27;;;;;;;1.83;1.15;;;13.80;99.90;;;;;;5067861;28;20105;-75
2023/10/10 03:20:38;;;;;;;1.50;0.90;;;13.80;99.90;;;;;;5105939;28;20054;-75
2023/10/10 03:25:47;;;;;;;1.95;1.30;;;13.70;99.90;;;;;;5086671;28;20501;-75
2023/10/10 05:23:31;;;;;;;1.27;0.88;;;13.00;1.00;;;;;;5101081;28;21325;-76
2023/10/10 05:25:59;;;;;;;1.73;1.30;;;13.00;1.00;;;;;;5097498;28;20047;-76
2023/10/10 05:28:30;;;;;;;1.73;1.00;;;13.00;1.00;;;;;;5101737;28;20078;-76
2023/10/10 05:30:58;;;;;;;1.10;1.00;;;13.00;1.00;;;;;;5103194;28;20138;-77
2023/10/10 05:33:26;;;;;;;1.60;1.15;;;13.00;1.00;;;;;;5083159;28;20044;-77
2023/10/10 05:35:58;;;;;;;1.50;1.00;;;13.00;1.00;;;;;;5090201;28;20054;-76
2023/10/10 05:38:25;;;;;;;1.50;1.20;;;13.00;1.00;;;;;;5105974;28;20393;-76
2023/10/10 05:40:52;;;;;;;1.70;1.15;;;13.00;99.90;;;;;;5088545;28;20052;-77
2023/10/10 05:43:26;;;;;;;1.08;0.80;;;13.00;1.00;;;;;;5094253;28;20475;-76
2023/10/10 05:45:53;;;;;;;1.02;0.90;;;13.00;1.00;;;;;;5093066;28;20044;-76
2023/10/10 05:48:21;;;;;;;1.25;0.90;;;13.10;99.90;;;;;;5091544;28;20090;-77
2023/10/10 05:50:48;;;;;;;0.90;0.80;;;13.10;99.90;;;;;;5096823;28;20055;-77
2023/10/10 05:53:16;;;;;;;1.00;0.75;;;13.10;99.90;;;;;;5098836;28;20134;-76
2023/10/10 05:55:50;;;;;;;1.25;0.90;;;13.10;99.90;;;;;;5098966;28;20063;-76
2023/10/10 05:58:18;;;;;;;1.13;0.90;;;13.00;99.90;;;;;;5081043;28;20100;-76
2023/10/10 06:00:48;;;;;;;0.60;0.60;;;13.10;99.90;;;;;;5105010;28;20048;-76
2023/10/10 06:03:17;;;;;;;1.23;0.80;;;13.00;99.90;;;;;;5101834;28;20067;-76
2023/10/10 06:05:44;;;;;;;0.80;0.70;;;13.10;99.90;;;;;;5102516;28;20059;-78
2023/10/10 06:08:15;;;;;;;1.67;1.00;;;13.10;99.90;;;;;;5081106;28;20075;-78
2023/10/10 06:10:42;;;;;;;0.98;0.73;;;13.00;99.90;;;;;;5096862;28;20103;-78
2023/10/10 06:13:11;;;;;;;1.10;0.80;;;13.00;46.10;;;;;;5104976;28;20051;-78
2023/10/10 06:15:38;;;;;;;1.20;0.70;;;13.00;25.60;;;;;;5079132;28;20079;-78
2023/10/10 06:18:08;;;;;;;1.27;0.90;;;13.00;13.20;;;;;;5085755;28;20051;-77
2023/10/10 06:20:41;;;;;;;1.77;1.23;;;13.00;1.00;;;;;;5080613;28;20079;-79
2023/10/10 06:23:28;;;;;;;1.00;0.80;;;13.00;1.00;;;;;;5079568;28;20158;-79
2023/10/10 06:25:58;;;;;;;1.05;0.70;;;13.00;1.00;;;;;;5095032;28;20144;-79
2023/10/10 06:28:29;;;;;;;0.90;0.80;;;13.00;1.00;;;;;;5063349;28;20410;-78
2023/10/10 06:30:59;;;;;;;5.35;1.00;;;13.00;1.00;;;;;;5084259;28;20054;-79
2023/10/10 06:33:27;;;;;;;2.13;0.70;;;13.00;1.00;;;;;;5067577;28;20482;-79
2023/10/10 06:36:32;;;;;;;0.65;0.65;;;13.00;1.00;;;;;;5102883;28;20459;-79
2023/10/10 06:39:17;;;;;;;0.85;0.60;;;13.00;1.00;;;;;;5087813;28;20047;-79
2023/10/10 06:41:50;;;;;;;0.52;0.50;;;13.00;1.00;;;;;;5089319;28;20263;-79
2023/10/10 06:44:31;;;;;;;;;;;13.10;1.00;;;;;;5094780;28;20051;-78
2023/10/10 06:47:00;;;;;;;0.85;0.70;;;13.10;1.00;;;;;;5085883;28;20315;-79
2023/10/10 06:49:43;;;;;;;1.00;0.70;;;13.20;82.30;;;;;;5076536;28;20519;-78
2023/10/10 06:52:18;;;;;;;0.98;0.70;;;13.20;94.00;;;;;;5089541;28;20051;-79
2023/10/10 06:54:54;;;;;;;1.05;0.80;;;13.30;99.90;;;;;;5069528;28;20107;-79
2023/10/10 06:57:43;;;;;;;0.98;0.70;;;13.50;99.90;;;;;;5088708;28;20134;-79
2023/10/10 07:00:28;;;;;;;1.50;0.90;;;13.70;1.00;;;;;;5090827;28;20428;-79
2023/10/10 07:02:56;;;;;;;1.13;0.98;;;13.90;99.90;;;;;;5066599;28;20048;-78
2023/10/10 07:05:26;;;;;;;0.80;0.68;;;14.10;94.60;;;;;;5065385;28;20051;-78
2023/10/10 07:08:00;;;;;;;0.95;0.70;;;14.30;18.30;;;;;;5078671;28;20055;-79
2023/10/10 07:10:33;;;;;;;0.60;0.40;;;14.40;1.00;;;;;;5087419;28;20055;-76
2023/10/10 07:13:01;;;;;;;0.93;0.75;;;14.50;99.90;;;;;;5096266;28;20143;-77
2023/10/10 07:15:34;;;;;;;0.80;0.70;;;14.60;99.90;;;;;;5084373;28;20048;-76
2023/10/10 07:18:08;;;;;;;1.13;0.98;;;14.60;99.90;;;;;;5082589;28;20553;-77
2023/10/10 07:23:24;;;;;;;1.35;1.00;;;14.70;99.90;;;;;;5102201;28;20051;-77
2023/10/10 07:26:01;;;;;;;1.17;0.82;;;14.80;99.90;;;;;;5102738;28;20053;-77
2023/10/10 07:28:34;;;;;;;0.65;0.60;;;14.80;99.90;;;;;;5088923;28;20489;-77
2023/10/10 07:31:02;;;;;;;0.90;0.80;;;14.90;99.90;;;;;;5106028;28;20128;-79
2023/10/10 07:33:40;;;;;;;1.33;0.73;;;14.90;99.90;;;;;;5088014;28;20312;-79
2023/10/10 07:36:13;;;;;;;0.85;0.70;;;15.00;55.00;;;;;;5105794;28;20122;-77
2023/10/10 07:38:40;;;;;;;0.52;0.50;;;15.00;24.70;;;;;;5103448;28;20052;-77
2023/10/10 07:41:37;;;;;;;1.00;0.80;;;15.10;75.80;;;;;;5104072;28;20092;-79
2023/10/10 07:44:05;;;;;;;0.50;0.50;;;15.20;38.90;;;;;;5105597;28;20484;-79
2023/10/10 07:46:35;;;;;;;1.10;0.73;;;15.20;99.90;;;;;;5096512;28;20335;-77
2023/10/10 07:49:03;;;;;;;0.57;0.55;;;15.30;99.90;;;;;;5087078;28;20047;-77
2023/10/10 07:51:34;;;;;;;1.50;1.02;;;15.40;99.90;;;;;;5080664;28;20345;-77
2023/10/10 07:54:13;;;;;;;1.23;1.00;;;15.50;99.90;;;;;;5089644;28;20289;-75
2023/10/10 07:56:46;;;;;;;0.80;0.73;;;15.70;99.90;;;;;;5086366;28;20044;-75
2023/10/10 07:59:13;;;;;;;0.77;0.75;;;15.70;99.90;;;;;;5064691;28;21249;-75
2023/10/10 08:01:42;;;;;;;0.80;0.80;;;15.90;88.90;;;;;;5076573;28;20767;-75
2023/10/10 08:04:13;;;;;;;1.40;0.70;;;16.00;1.00;;;;;;5073468;28;20401;-75
2023/10/10 08:06:45;;;;;;;0.90;0.70;;;16.10;99.90;;;;;;5061264;28;20253;-75
2023/10/10 08:09:23;;;;;;;1.65;1.00;;;16.20;99.50;;;;;;5082065;28;20048;-75
2023/10/10 08:11:55;;;;;;;0.90;0.70;;;16.30;1.00;;;;;;5078216;28;20152;-77
2023/10/10 08:14:29;;;;;;;1.60;1.08;;;16.50;99.90;;;;;;5089974;28;20048;-77
2023/10/10 08:17:02;;;;;;;1.25;0.73;;;16.60;99.90;;;;;;5099162;28;20051;-75
2023/10/10 08:19:33;;;;;;;0.98;0.85;;;16.70;90.30;;;;;;5078369;28;20043;-77
2023/10/10 08:22:12;;;;;;;0.95;0.70;;;16.80;18.70;;;;;;5096646;28;20090;-75
2023/10/10 08:24:43;;;;;;;0.60;0.60;;;16.90;1.00;;;;;;5075337;28;20379;-75
2023/10/10 08:27:11;;;;;;;0.82;0.73;;;17.00;99.90;;;;;;5094917;28;20044;-75
2023/10/10 08:29:38;;;;;;;1.30;0.80;;;17.10;1.00;;;;;;5071793;28;20051;-75
2023/10/10 08:32:05;;;;;;;0.82;0.60;;;17.20;99.90;;;;;;5097835;27;20411;-75
2023/10/10 08:34:34;;;;;;;1.33;0.90;;;17.40;65.70;;;;;;5096893;28;20459;-76
2023/10/10 08:37:04;;;;;;;1.10;0.80;;;17.40;1.00;;;;;;5090899;28;20134;-75
2023/10/10 08:39:35;;;;;;;0.88;0.70;;;17.50;99.90;;;;;;5095714;28;20044;-75
2023/10/10 08:42:10;;;;;;;1.50;0.68;;;17.60;99.90;;;;;;5089645;28;20634;-75
2023/10/10 08:44:39;;;;;;;1.23;0.80;;;17.70;99.90;;;;;;5104273;28;20047;-75
2023/10/10 08:47:07;;;;;;;1.60;0.82;;;17.80;99.90;;;;;;5088641;28;20580;-75
2023/10/10 08:49:35;;;;;;;0.98;0.90;;;17.90;94.10;;;;;;5066643;28;20056;-75
2023/10/10 08:52:02;;;;;;;1.17;0.90;;;18.00;46.40;;;;;;5090846;28;20070;-75
2023/10/10 08:54:32;;;;;;;1.23;0.88;;;18.10;19.90;;;;;;5107126;28;20055;-76
2023/10/10 08:56:59;;;;;;;0.77;0.73;;;18.20;1.00;;;;;;5073849;28;20450;-75
2023/10/10 08:59:30;;;;;;;1.50;0.98;;;18.40;1.00;;;;;;5089683;28;20047;-76
2023/10/10 09:02:06;;;;;;;1.23;0.93;;;18.50;1.00;;;;;;5096274;28;20051;-75
2023/10/10 09:04:33;;;;;;;1.85;1.20;;;18.70;1.00;;;;;;5105626;28;20051;-76
2023/10/10 09:07:08;;;;;;;1.80;1.13;;;18.70;1.00;;;;;;5107282;28;20047;-75
2023/10/10 09:12:03;;;;;;;1.60;1.15;;;18.90;1.00;;;;;;5089824;28;20047;-76
2023/10/10 09:14:39;;;;;;;1.48;1.00;;;19.00;1.00;;;;;;5106410;28;20134;-75
2023/10/10 09:17:08;;;;;;;1.83;1.10;;;19.00;1.00;;;;;;5104970;28;20568;-76
2023/10/10 09:19:47;;;;;;;1.25;0.93;;;19.10;1.00;;;;;;5092119;28;20048;-76
2023/10/10 09:22:28;;;;;;;0.93;0.80;;;19.20;1.00;;;;;;5090265;28;20047;-76
2023/10/10 09:24:55;;;;;;;1.15;0.82;;;19.30;1.00;;;;;;5070975;28;20408;-76
2023/10/10 09:27:27;;;;;;;1.70;1.20;;;19.40;1.00;;;;;;5102626;28;20570;-76
2023/10/10 09:29:57;;;;;;;1.10;0.73;;;19.50;1.00;;;;;;5087342;28;20175;-76
2023/10/10 09:32:36;;;;;;;1.88;1.33;;;19.60;1.00;;;;;;5103682;28;20616;-76
2023/10/10 09:35:06;;;;;;;1.38;1.00;;;19.70;1.00;;;;;;5106815;28;20126;-76
2023/10/10 09:37:38;;;;;;;1.48;1.00;;;19.70;1.00;;;;;;5089513;28;20106;-76
2023/10/10 09:40:15;;;;;;;1.57;1.37;;;19.80;1.00;;;;;;5103777;28;20067;-76
2023/10/10 09:42:53;;;;;;;1.73;1.17;;;19.90;1.00;;;;;;5102810;28;20074;-76
2023/10/10 09:45:51;;;;;;;1.85;1.10;;;20.00;1.00;;;;;;5093929;28;20044;-76
2023/10/10 09:48:33;;;;;;;0.95;0.80;;;20.10;1.00;;;;;;5082793;28;20049;-76
2023/10/10 09:51:30;;;;;;;1.10;0.88;;;20.20;1.00;;;;;;5100763;28;20134;-76
2023/10/10 09:54:15;;;;;;;1.48;0.80;;;20.30;1.00;;;;;;5091176;28;20047;-76
2023/10/10 09:56:50;;;;;;;1.38;1.15;;;20.40;1.00;;;;;;5088298;28;20050;-76
2023/10/10 09:59:20;;;;;;;1.67;1.00;;;20.50;1.00;;;;;;5071554;28;20063;-76
2023/10/10 10:01:47;;;;;;;1.25;1.00;;;20.50;1.00;;;;;;5105611;28;20048;-76
2023/10/10 10:04:19;;;;;;;1.52;1.00;;;20.60;1.00;;;;;;5102701;28;20619;-76
2023/10/10 10:07:25;;;;;;;0.88;0.80;;;20.60;1.00;;;;;;5102429;28;20383;-75
2023/10/10 10:10:20;;;;;;;0.95;0.85;;;20.60;1.00;;;;;;5049104;28;20129;-76
2023/10/10 10:13:13;;;;;;;1.42;0.90;;;20.60;1.00;;;;;;5074789;28;20062;-76
2023/10/10 10:15:59;;;;;;;;;;;20.70;1.00;;;;;;5083349;28;20074;-75
2023/10/10 10:18:29;;;;;;;1.23;0.80;;;20.70;1.00;;;;;;5082429;28;19934;-75
2023/10/10 10:23:45;;;;;;;1.00;0.80;;;20.80;1.00;;;;;;5103465;28;20062;-75
2023/10/10 10:26:31;;;;;;;1.23;0.90;;;20.90;1.00;;;;;;5086332;28;20044;-75
2023/10/10 10:29:07;;;;;;;1.40;0.90;;;20.90;1.00;;;;;;5102501;28;20059;-75
2023/10/10 10:31:37;;;;;;;1.23;1.02;;;21.10;1.00;;;;;;5083022;28;20122;-75
2023/10/10 10:34:08;;;;;;;1.27;0.90;;;21.20;1.00;;;;;;5098838;28;20051;-74
2023/10/10 10:36:45;;;;;;;2.03;1.08;;;21.30;1.00;;;;;;5098836;28;20044;-75
2023/10/10 10:39:35;;;;;;;1.58;1.00;;;21.40;1.00;;;;;;5084675;28;20554;-75
2023/10/10 10:42:11;;;;;;;1.63;1.00;;;21.50;1.00;;;;;;5095097;28;20047;-75
2023/10/10 10:45:00;;;;;;;1.60;0.88;;;21.60;1.00;;;;;;5065421;28;20052;-75
2023/10/10 10:47:37;;;;;;;0.80;0.70;;;21.70;1.00;;;;;;5083415;28;20386;-75
2023/10/10 10:50:05;;;;;;;1.42;1.10;;;21.80;1.00;;;;;;5089645;28;20465;-75
2023/10/10 10:52:44;;;;;;;0.95;0.73;;;22.00;1.00;;;;;;5098691;28;20055;-76
2023/10/10 10:55:23;;;;;;;0.95;0.77;;;22.00;1.00;;;;;;5067823;28;20052;-76
2023/10/10 10:58:05;;;;;;;0.70;0.70;;;22.10;1.00;;;;;;5081927;28;20052;-81
2023/10/10 11:01:00;;;;;;;1.17;0.90;;;22.20;1.00;;;;;;5066805;28;20043;-81
2023/10/10 11:03:35;;;;;;;1.20;0.80;;;22.30;1.00;;;;;;5098396;28;20097;-80
2023/10/10 11:06:06;;;;;;;1.00;0.77;;;22.30;1.00;;;;;;5065734;28;20136;-80
2023/10/10 11:16:46;;;;;;;1.42;0.98;;;23.00;1.00;;;;;;5079193;28;20052;-79
2023/10/10 11:21:50;;;;;;;1.02;0.80;;;23.50;1.00;;;;;;5096853;28;20130;-79
2023/10/10 11:24:26;;;;;;;0.95;0.82;;;23.70;1.00;;;;;;5073456;27;20938;-79
2023/10/10 11:29:47;;;;;;;1.27;0.90;;;23.80;1.00;;;;;;5084725;28;21160;-79
2023/10/10 11:32:16;;;;;;;1.45;1.20;;;23.90;1.00;;;;;;5068909;28;20063;-80
2023/10/10 11:34:46;;;;;;;1.55;1.10;;;24.00;1.00;;;;;;5067420;28;20404;-79
2023/10/10 11:37:14;;;;;;;1.05;0.80;;;24.00;1.00;;;;;;5100191;28;20779;-79
2023/10/10 11:39:48;;;;;;;1.60;1.00;;;24.00;1.00;;;;;;5084453;28;20051;-81
2023/10/10 11:42:26;;;;;;;1.30;1.10;;;24.10;1.00;;;;;;5071289;28;20075;-80
2023/10/10 11:45:06;;;;;;;0.90;0.75;;;24.30;1.00;;;;;;5100492;28;20100;-80
2023/10/10 11:47:42;;;;;;;1.38;1.00;;;24.50;1.00;;;;;;5101768;28;20733;-78
2023/10/10 11:50:12;;;;;;;2.40;1.33;;;24.60;1.00;;;;;;5081637;28;20048;-79
2023/10/10 11:52:58;;;;;;;1.30;1.08;;;24.70;1.00;;;;;;5103760;28;20059;-79
2023/10/10 11:55:25;;;;;;;1.73;1.25;;;24.70;1.00;;;;;;5061505;28;20047;-79
2023/10/10 11:58:06;;;;;;;1.33;1.05;;;24.80;1.00;;;;;;5090990;28;20043;-78
2023/10/10 12:00:45;;;;;;;1.58;1.27;;;24.80;1.00;;;;;;5091754;28;20706;-79
2023/10/10 12:06:01;;;;;;;1.50;1.10;;;25.30;1.00;;;;;;5093377;28;20394;-79
2023/10/10 12:08:28;;;;;;;1.90;1.30;;;25.50;1.00;;;;;;5066675;28;20051;-79
2023/10/10 12:11:06;;;;;;;1.90;1.35;;;25.60;1.00;;;;;;5090457;28;20044;-79
2023/10/10 12:13:33;;;;;;;1.65;1.17;;;25.50;1.00;;;;;;5092832;28;20131;-79
2023/10/10 12:16:10;;;;;;;1.85;1.25;;;25.50;1.00;;;;;;5089587;28;20123;-79
2023/10/10 12:18:49;;;;;;;1.73;1.35;;;25.60;1.00;;;;;;5066120;28;20055;-79
2023/10/10 12:21:20;;;;;;;1.48;1.20;;;25.80;1.00;;;;;;5095035;28;20051;-79
2023/10/10 12:23:55;;;;;;;1.23;1.13;;;26.20;1.00;;;;;;5097739;28;20124;-79
2023/10/10 12:26:29;;;;;;;1.63;1.35;;;26.50;1.00;;;;;;5099448;28;20164;-79
2023/10/10 12:28:57;;;;;;;1.85;1.30;;;26.60;1.00;;;;;;5100342;28;20116;-82
2023/10/10 12:31:24;;;;;;;1.88;1.30;;;26.80;1.00;;;;;;5097556;28;20044;-81
2023/10/10 12:33:53;;;;;;;1.27;1.00;;;27.00;1.00;;;;;;5101485;28;20435;-82
2023/10/10 12:36:28;;;;;;;1.73;1.10;;;27.20;1.00;;;;;;5088198;28;20051;-81
2023/10/10 12:38:58;;;;;;;1.50;1.23;;;27.40;1.00;;;;;;5084172;28;20135;-81
2023/10/10 12:41:26;;;;;;;1.40;1.05;;;27.50;1.00;;;;;;5093376;28;20093;-81
2023/10/10 12:43:53;;;;;;;1.73;1.05;;;27.60;1.00;;;;;;5100688;28;20040;-80
2023/10/10 12:46:23;;;;;;;1.60;1.25;;;27.70;1.00;;;;;;5096753;28;20051;-81
2023/10/10 12:48:51;;;;;;;1.50;1.23;;;27.70;1.00;;;;;;5087097;28;20554;-81
2023/10/10 12:51:22;;;;;;;1.67;1.20;;;27.80;1.00;;;;;;5098302;28;20052;-81
2023/10/10 12:53:55;;;;;;;1.67;1.20;;;28.00;1.00;;;;;;5100205;28;20382;-82
2023/10/10 12:56:23;;;;;;;1.15;1.00;;;28.10;1.00;;;;;;5087670;28;20040;-79
2023/10/10 12:58:57;;;;;;;2.00;1.20;;;28.20;1.00;;;;;;5084104;28;20117;-79
2023/10/10 13:01:37;;;;;;;1.48;1.23;;;28.30;1.00;;;;;;5071451;28;20101;-79
2023/10/10 13:04:07;;;;;;;2.05;1.25;;;28.00;1.00;;;;;;5106448;28;20048;-80
2023/10/10 13:06:39;;;;;;;2.00;1.27;;;27.90;1.00;;;;;;5098550;28;20093;-82
2023/10/10 13:09:08;;;;;;;1.77;1.30;;;27.90;1.00;;;;;;5092925;28;20652;-80
2023/10/10 13:11:44;;;;;;;1.63;1.35;;;27.90;99.90;;;;;;5082742;28;20393;-80
2023/10/10 13:14:24;;;;;;;1.85;1.33;;;27.60;99.90;;;;;;5100286;28;20063;-80
2023/10/10 13:19:20;;;;;;;1.75;1.27;;;27.70;99.90;;;;;;5088975;28;20048;-80
2023/10/10 13:21:47;;;;;;;1.77;1.45;;;27.80;99.90;;;;;;5106745;28;20048;-80
2023/10/10 13:24:15;;;;;;;1.33;1.02;;;27.90;99.90;;;;;;5103424;28;20141;-80
2023/10/10 13:26:50;;;;;;;1.38;1.00;;;28.00;99.90;;;;;;5102706;28;20138;-80
2023/10/10 13:29:17;;;;;;;1.45;1.10;;;28.10;99.90;;;;;;5089135;28;20177;-80
2023/10/10 13:31:49;;;;;;;1.67;1.10;;;28.20;99.90;;;;;;5107742;28;20044;-80
2023/10/10 13:34:22;;;;;;;1.77;1.27;;;28.40;99.90;;;;;;5107585;28;20542;-80
2023/10/10 13:36:49;;;;;;;1.63;1.20;;;28.30;99.90;;;;;;5106323;28;20264;-80
2023/10/10 13:39:33;;;;;;;1.95;1.10;;;28.30;99.90;;;;;;5105709;28;20051;-80
2023/10/10 13:42:00;;;;;;;1.48;1.10;;;28.20;99.90;;;;;;5088389;28;20492;-80
2023/10/10 13:44:27;;;;;;;0.85;0.80;;;28.30;99.90;;;;;;5104337;28;20048;-80
2023/10/10 13:46:54;;;;;;;1.33;1.02;;;28.40;99.90;;;;;;5106333;28;20465;-80
2023/10/10 13:49:21;;;;;;;0.73;0.73;;;28.40;99.90;;;;;;5107365;28;20044;-80
2023/10/10 13:51:51;;;;;;;1.50;1.10;;;28.60;99.90;;;;;;5103299;28;20147;-80
2023/10/10 13:54:19;;;;;;;1.30;1.20;;;28.70;1.00;;;;;;5101969;28;20066;-80
2023/10/10 13:56:46;;;;;;;1.10;0.80;;;28.70;99.90;;;;;;5105046;28;20532;-80
2023/10/10 13:59:16;;;;;;;0.90;0.77;;;28.70;99.90;;;;;;5082311;28;20101;-80
2023/10/10 14:01:43;;;;;;;1.40;1.05;;;28.60;99.90;;;;;;5102028;28;20052;-80
2023/10/10 14:04:45;;;;;;;1.63;1.50;;;28.30;99.90;;;;;;5102474;27;20058;-80
2023/10/10 14:07:00;;;;;;;1.40;1.10;;;28.20;99.90;;;;;;5102439;28;20048;-79
2023/10/10 14:09:33;;;;;;;1.00;0.82;;;28.00;99.90;;;;;;5105081;28;20051;-79
2023/10/10 14:12:20;;;;;;;1.60;1.10;;;27.70;99.90;;;;;;5091621;28;20134;-79
2023/10/10 14:14:47;;;;;;;1.25;0.90;;;27.50;99.90;;;;;;5089143;28;20047;-80
2023/10/10 14:17:14;;;;;;;1.10;0.80;;;27.40;99.90;;;;;;5105736;28;20052;-79
2023/10/10 14:19:41;;;;;;;1.30;1.05;;;27.30;99.90;;;;;;5106816;28;20515;-79
2023/10/10 14:22:10;;;;;;;1.10;1.00;;;27.40;99.90;;;;;;5098573;28;20086;-79
2023/10/10 14:24:37;;;;;;;1.83;1.25;;;27.50;99.90;;;;;;5102357;28;20055;-79
2023/10/10 14:27:05;;;;;;;1.92;1.35;;;27.30;99.90;;;;;;5101726;28;20082;-80
2023/10/10 14:29:41;;;;;;;1.60;1.08;;;27.00;99.90;;;;;;5103497;28;20373;-80
2023/10/10 14:32:10;;;;;;;1.20;0.77;;;26.80;99.90;;;;;;5100853;28;20122;-80
2023/10/10 14:34:52;;;;;;;2.28;1.10;;;26.60;99.90;;;;;;5092492;28;20139;-80
2023/10/10 14:37:19;;;;;;;1.70;1.15;;;26.70;99.90;;;;;;5083871;28;20044;-79
2023/10/10 14:40:09;;;;;;;1.05;0.95;;;26.80;99.90;;;;;;5080894;28;20053;-80
2023/10/10 14:42:36;;;;;;;1.95;1.33;;;27.00;99.90;;;;;;5081026;28;20063;-79
2023/10/10 14:45:06;;;;;;;1.73;1.20;;;26.90;99.90;;;;;;5093783;28;20051;-79
2023/10/10 14:47:36;;;;;;;2.03;1.08;;;26.70;99.90;;;;;;5092252;28;20052;-79
2023/10/10 14:50:07;;;;;;;0.95;0.82;;;26.60;99.90;;;;;;5079927;28;20578;-79
2023/10/10 14:52:40;;;;;;;1.13;0.88;;;26.70;99.90;;;;;;5095073;28;20075;-79
2023/10/10 14:55:23;;;;;;;0.70;0.70;;;26.60;99.90;;;;;;5099338;28;20053;-80
2023/10/10 14:57:55;;;;;;;0.80;0.60;;;26.70;99.90;;;;;;5083528;28;20051;-80
2023/10/10 15:00:23;;;;;;;2.20;0.85;;;26.80;99.90;;;;;;5071651;28;20059;-80
2023/10/10 15:02:53;;;;;;;2.13;1.10;;;26.80;99.90;;;;;;5084858;28;20066;-80
2023/10/10 15:05:23;;;;;;;1.27;1.00;;;26.70;99.90;;;;;;5071533;27;20051;-80
2023/10/10 15:07:52;;;;;;;1.13;0.95;;;26.70;99.90;;;;;;5118054;27;20047;-79
2023/10/10 15:10:23;;;;;;;1.48;1.00;;;26.70;99.90;;;;;;5105014;27;20052;-79
2023/10/10 15:12:50;;;;;;;1.23;0.82;;;26.80;99.90;;;;;;5085345;28;20063;-80
2023/10/10 15:15:17;;;;;;;1.88;1.58;;;26.50;99.90;;;;;;5088790;28;20039;-78
2023/10/10 15:17:44;;;;;;;1.98;1.30;;;26.30;99.90;;;;;;5076506;28;20059;-79
2023/10/10 15:20:14;;;;;;;1.63;1.30;;;26.00;99.90;;;;;;5089773;28;20063;-79
2023/10/10 15:22:41;;;;;;;1.75;1.40;;;25.80;99.90;;;;;;5097254;28;20478;-80
2023/10/10 15:25:10;;;;;;;1.58;1.30;;;25.60;99.90;;;;;;5091531;28;20182;-79
2023/10/10 15:27:40;;;;;;;1.98;1.30;;;25.60;99.90;;;;;;5090745;28;20277;-79
2023/10/10 15:30:08;;;;;;;1.65;1.30;;;25.80;99.90;;;;;;5094800;28;20054;-79
2023/10/10 15:32:46;;;;;;;1.48;1.20;;;26.10;99.90;;;;;;5097042;28;20059;-79
2023/10/10 15:35:15;;;;;;;1.52;1.02;;;26.00;99.90;;;;;;5098361;28;20317;-80
2023/10/10 15:37:42;;;;;;;1.48;0.95;;;25.80;99.90;;;;;;5096788;28;20349;-79
2023/10/10 15:40:20;;;;;;;1.70;0.98;;;25.30;99.90;;;;;;5096541;28;20397;-79
2023/10/10 15:42:51;;;;;;;2.00;1.15;;;25.00;99.90;;;;;;5097365;28;20227;-79
2023/10/10 15:45:21;;;;;;;1.33;1.05;;;24.70;99.90;;;;;;5092062;28;20056;-80
2023/10/10 15:47:54;;;;;;;1.70;1.23;;;24.30;99.90;;;;;;5064241;28;20083;-79
2023/10/10 15:50:21;;;;;;;1.80;1.30;;;23.90;99.90;;;;;;5095592;28;20496;-81
2023/10/10 15:52:49;;;;;;;2.83;1.38;;;23.60;99.90;;;;;;5098370;28;20077;-80
2023/10/10 15:55:23;;;;;;;1.45;1.20;;;23.30;99.90;;;;;;5097445;28;20058;-80
2023/10/10 15:57:52;;;;;;;1.52;1.13;;;23.10;99.90;;;;;;5062423;28;20233;-80
2023/10/10 16:00:21;;;;;;;1.58;1.25;;;22.90;99.90;;;;;;5091608;28;20052;-79
2023/10/10 16:02:53;;;;;;;1.52;1.00;;;23.00;99.90;;;;;;5096170;28;20140;-80
2023/10/10 16:05:21;;;;;;;1.25;0.93;;;23.00;99.90;;;;;;5097817;28;20136;-79
2023/10/10 16:07:49;;;;;;;1.35;1.17;;;22.90;99.90;;;;;;5097394;28;20074;-80